Time;durP1;ratioP1;P1;durP2;ratioP2;P2;SDS_P1;SDS_P2;PMS_P1;PMS_P2;Temp;Humidity;BMP_temperature;BMP_pressure;BME280_temperature;BME280_humidity;BME280_pressure;Samples;Min_cycle;Max_cycle;Signal;HPM_P1;HPM_P2
2022/01/19 00:00:51;;;;;;;14.85;6.47;;;4.60;61.70;;;;;;5069014;28;20412;-66
2022/01/19 00:03:17;;;;;;;21.55;7.38;;;4.70;61.70;;;;;;5068748;28;20038;-66
2022/01/19 00:05:43;;;;;;;18.27;7.38;;;4.60;61.70;;;;;;5069565;28;20029;-66
2022/01/19 00:08:10;;;;;;;16.88;6.45;;;4.60;61.70;;;;;;5051355;28;20446;-67
2022/01/19 00:10:36;;;;;;;15.15;6.78;;;4.60;61.80;;;;;;5069557;28;20025;-67
2022/01/19 00:13:03;;;;;;;19.02;6.60;;;4.60;61.70;;;;;;5069747;28;20048;-67
2022/01/19 00:15:29;;;;;;;18.30;6.32;;;4.60;61.70;;;;;;5068094;28;20016;-68
2022/01/19 00:17:58;;;;;;;19.63;7.07;;;4.60;61.70;;;;;;5054978;28;20028;-67
2022/01/19 00:20:27;;;;;;;16.27;6.30;;;4.60;61.80;;;;;;5069723;28;20024;-66
2022/01/19 00:22:54;;;;;;;15.68;6.60;;;4.60;61.90;;;;;;5073888;28;20462;-67
2022/01/19 00:25:20;;;;;;;20.38;7.63;;;4.50;62.00;;;;;;5052096;28;20029;-68
2022/01/19 00:27:46;;;;;;;22.63;7.22;;;4.50;62.10;;;;;;5054747;28;20115;-66
2022/01/19 00:30:13;;;;;;;23.92;8.18;;;4.50;62.10;;;;;;5055176;28;20173;-65
2022/01/19 00:32:38;;;;;;;21.27;6.78;;;4.50;62.10;;;;;;5055268;28;20029;-67
2022/01/19 00:35:06;;;;;;;19.25;7.07;;;4.50;62.10;;;;;;5055645;28;20044;-67
2022/01/19 00:37:32;;;;;;;18.65;6.43;;;4.50;62.10;;;;;;5073022;28;20161;-66
2022/01/19 00:39:58;;;;;;;13.13;6.13;;;4.60;62.20;;;;;;5054124;28;20062;-67
2022/01/19 00:42:24;;;;;;;17.45;5.97;;;4.50;62.10;;;;;;5072287;28;20108;-67
2022/01/19 00:44:51;;;;;;;16.90;6.30;;;4.60;62.10;;;;;;5056028;28;20099;-68
2022/01/19 00:47:17;;;;;;;19.60;6.20;;;4.60;62.50;;;;;;5054580;28;20139;-66
2022/01/19 00:49:45;;;;;;;18.85;5.93;;;4.60;62.10;;;;;;5073596;28;20108;-66
2022/01/19 00:52:12;;;;;;;15.75;5.85;;;4.60;62.10;;;;;;5073123;28;20031;-65
2022/01/19 00:54:39;;;;;;;12.90;5.90;;;4.60;62.10;;;;;;5072467;28;20503;-66
2022/01/19 00:57:06;;;;;;;18.08;5.93;;;4.60;62.20;;;;;;5072069;28;20051;-67
2022/01/19 00:59:32;;;;;;;20.10;6.45;;;4.60;62.20;;;;;;5072611;28;20032;-66
2022/01/19 01:01:58;;;;;;;17.80;6.00;;;4.60;62.20;;;;;;5072860;28;20040;-66
2022/01/19 01:04:24;;;;;;;14.48;5.88;;;4.50;62.20;;;;;;5072681;28;20108;-67
2022/01/19 01:06:50;;;;;;;13.73;5.68;;;4.50;62.30;;;;;;5055753;28;20123;-68
2022/01/19 01:09:16;;;;;;;12.23;5.30;;;4.50;62.30;;;;;;5072147;28;20040;-66
2022/01/19 01:11:58;;;;;;;17.10;5.13;;;4.50;62.50;;;;;;5072385;28;20074;-66
2022/01/19 01:17:13;;;;;;;13.20;5.63;;;4.50;62.30;;;;;;5092454;28;20496;-66
2022/01/19 01:19:40;;;;;;;14.60;5.72;;;4.50;62.40;;;;;;5091729;28;20115;-66
2022/01/19 01:22:06;;;;;;;22.85;6.93;;;4.50;62.50;;;;;;5091942;28;20437;-67
2022/01/19 01:24:32;;;;;;;19.83;7.05;;;4.50;62.80;;;;;;5091931;28;20059;-66
2022/01/19 01:26:57;;;;;;;19.30;7.40;;;4.50;63.40;;;;;;5092873;28;20038;-66
2022/01/19 01:29:23;;;;;;;17.65;6.95;;;4.40;63.50;;;;;;5089497;28;20388;-66
2022/01/19 01:31:49;;;;;;;20.05;7.43;;;4.30;63.70;;;;;;5092962;28;20473;-67
2022/01/19 01:34:14;;;;;;;19.42;6.75;;;4.20;64.00;;;;;;5091926;28;20024;-65
2022/01/19 01:36:40;;;;;;;23.10;7.53;;;4.20;64.10;;;;;;5091212;28;20534;-67
2022/01/19 01:39:06;;;;;;;16.35;6.28;;;4.20;64.10;;;;;;5092663;28;20040;-67
2022/01/19 01:41:31;;;;;;;13.63;5.65;;;4.20;64.00;;;;;;5090900;28;20614;-66
2022/01/19 01:43:57;;;;;;;18.50;5.95;;;4.20;63.90;;;;;;5091391;28;20028;-67
2022/01/19 01:46:35;;;;;;;12.07;5.75;;;4.20;63.80;;;;;;5090368;28;20036;-66
2022/01/19 01:49:01;;;;;;;13.85;5.30;;;4.20;63.70;;;;;;5090966;28;20028;-67
2022/01/19 01:54:11;;;;;;;21.08;6.72;;;4.20;63.70;;;;;;5092853;28;20031;-66
2022/01/19 01:56:36;;;;;;;22.98;6.95;;;4.20;64.00;;;;;;5090312;28;20032;-68
2022/01/19 01:59:02;;;;;;;19.67;6.80;;;4.10;64.30;;;;;;5092425;28;20035;-66
2022/01/19 02:01:28;;;;;;;19.63;6.50;;;4.00;64.50;;;;;;5090203;28;20028;-66
2022/01/19 02:03:54;;;;;;;17.55;6.60;;;4.00;64.90;;;;;;5090815;28;20047;-66
2022/01/19 02:21:59;;;;;;;21.38;6.57;;;3.90;66.10;;;;;;5065348;28;20436;-66
2022/01/19 02:24:31;;;;;;;12.98;5.78;;;3.90;65.50;;;;;;5071012;28;20032;-66
2022/01/19 02:28:57;;;;;;;15.60;5.40;;;3.90;65.60;;;;;;5061049;28;20095;-66
2022/01/19 02:30:45;;;;;;;21.05;6.28;;;3.90;65.80;;;;;;5064201;28;20033;-66
2022/01/19 02:40:57;;;;;;;15.88;6.25;;;3.60;66.60;;;;;;5056952;28;19989;-67
2022/01/19 02:49:15;;;;;;;20.33;6.13;;;3.50;66.80;;;;;;5071126;28;20023;-67
2022/01/19 02:51:46;;;;;;;19.13;7.05;;;3.50;66.90;;;;;;5071367;28;20027;-67
2022/01/19 02:54:14;;;;;;;22.67;6.20;;;3.50;67.00;;;;;;5069658;28;20021;-67
2022/01/19 02:56:43;;;;;;;15.07;5.70;;;3.50;67.10;;;;;;5070440;28;20036;-66
2022/01/19 02:59:24;;;;;;;16.08;6.38;;;3.40;67.20;;;;;;5070835;28;20062;-67
2022/01/19 03:08:48;;;;;;;18.02;6.30;;;3.50;67.10;;;;;;4996276;28;20034;-66
2022/01/19 03:10:42;;;;;;;14.75;6.20;;;3.50;67.00;;;;;;5047640;28;20044;-66
2022/01/19 03:13:08;;;;;;;15.63;5.90;;;3.50;66.90;;;;;;5077272;28;20048;-68
2022/01/19 03:15:33;;;;;;;19.50;6.55;;;3.50;67.00;;;;;;5089930;28;20642;-66
2022/01/19 03:18:01;;;;;;;17.90;6.15;;;3.50;67.30;;;;;;5073191;28;20052;-66
2022/01/19 03:20:28;;;;;;;22.00;6.55;;;3.50;67.30;;;;;;5090007;28;20060;-67
2022/01/19 03:25:22;;;;;;;18.42;6.00;;;3.30;67.50;;;;;;5088792;28;20024;-66
2022/01/19 03:27:48;;;;;;;18.70;6.82;;;3.30;67.70;;;;;;5090689;28;20032;-66
2022/01/19 03:30:16;;;;;;;17.70;6.30;;;3.20;68.00;;;;;;5090235;28;20433;-65
2022/01/19 03:32:42;;;;;;;18.40;6.95;;;3.20;67.90;;;;;;5072786;28;20027;-67
2022/01/19 03:35:09;;;;;;;19.90;6.10;;;3.10;68.10;;;;;;5090064;28;20415;-66
2022/01/19 03:37:35;;;;;;;16.85;6.45;;;3.10;68.30;;;;;;5089541;28;20020;-68
2022/01/19 03:40:03;;;;;;;15.45;5.75;;;3.10;68.70;;;;;;5090236;28;20073;-66
2022/01/19 03:42:28;;;;;;;13.32;5.95;;;3.00;68.90;;;;;;5088464;28;20020;-66
2022/01/19 03:44:54;;;;;;;19.23;7.10;;;2.90;68.90;;;;;;5072113;28;20136;-67
2022/01/19 03:47:20;;;;;;;19.13;6.10;;;2.90;68.90;;;;;;5089650;28;20061;-66
2022/01/19 03:49:46;;;;;;;17.55;5.78;;;2.90;68.90;;;;;;5089949;28;20150;-67
2022/01/19 03:52:11;;;;;;;16.75;6.07;;;2.90;68.90;;;;;;5089293;28;20024;-67
2022/01/19 03:54:41;;;;;;;18.60;6.50;;;2.90;68.90;;;;;;5089653;28;20032;-67
2022/01/19 03:57:07;;;;;;;20.67;6.72;;;3.00;68.80;;;;;;5089512;28;20036;-67
2022/01/19 03:59:33;;;;;;;23.85;6.35;;;3.00;68.70;;;;;;5071216;28;20035;-67
2022/01/19 04:01:59;;;;;;;18.65;6.22;;;3.10;68.60;;;;;;5088662;28;20028;-66
2022/01/19 04:06:55;;;;;;;14.52;6.00;;;3.20;68.30;;;;;;5089904;28;20023;-66
2022/01/19 04:09:22;;;;;;;19.23;6.22;;;3.20;68.50;;;;;;5089169;28;20016;-66
2022/01/19 04:11:48;;;;;;;19.60;6.40;;;3.10;68.40;;;;;;5090504;28;20073;-67
2022/01/19 04:14:24;;;;;;;20.67;6.70;;;3.10;68.50;;;;;;5084316;28;20047;-66
2022/01/19 04:16:59;;;;;;;17.17;6.68;;;3.00;68.70;;;;;;5089911;28;20032;-67
2022/01/19 04:19:32;;;;;;;17.52;6.38;;;3.00;68.70;;;;;;5068985;28;20424;-66
2022/01/19 04:22:04;;;;;;;21.13;6.65;;;3.00;69.10;;;;;;5070389;28;20063;-67
2022/01/19 04:24:30;;;;;;;19.38;6.95;;;3.00;69.10;;;;;;5083789;28;20032;-67
2022/01/19 04:29:51;;;;;;;17.60;6.57;;;3.00;69.00;;;;;;5070505;28;20031;-66
2022/01/19 04:32:22;;;;;;;18.13;6.75;;;3.00;68.90;;;;;;5089230;28;20035;-65
2022/01/19 04:34:49;;;;;;;18.77;6.47;;;3.10;68.80;;;;;;5088285;28;20016;-66
2022/01/19 04:45:55;;;;;;;15.57;6.43;;;3.10;68.90;;;;;;5090161;28;20040;-66
2022/01/19 05:01:46;;;;;;;18.55;6.70;;;2.90;69.20;;;;;;5088474;28;20500;-66
2022/01/19 05:04:28;;;;;;;19.38;6.65;;;2.90;69.40;;;;;;5092767;28;20024;-67
2022/01/19 05:07:08;;;;;;;16.30;7.10;;;2.90;69.40;;;;;;5093240;28;20085;-69
2022/01/19 05:14:43;;;;;;;18.13;6.18;;;2.90;69.60;;;;;;5061166;28;20055;-66
2022/01/19 05:17:09;;;;;;;22.08;7.53;;;2.90;69.50;;;;;;5073008;28;20036;-67
2022/01/19 05:19:35;;;;;;;22.00;6.68;;;2.90;69.40;;;;;;5071812;28;20436;-68
2022/01/19 05:22:00;;;;;;;16.20;6.38;;;2.90;69.50;;;;;;5072810;28;20028;-67
2022/01/19 05:24:26;;;;;;;16.95;6.70;;;2.90;69.40;;;;;;5071865;28;20114;-67
2022/01/19 05:26:52;;;;;;;18.20;7.38;;;3.00;69.50;;;;;;5053106;28;20035;-67
2022/01/19 05:29:18;;;;;;;19.50;6.75;;;2.90;69.60;;;;;;5071835;28;20459;-66
2022/01/19 05:31:44;;;;;;;19.67;7.32;;;2.90;69.80;;;;;;5072544;28;20031;-68
2022/01/19 05:34:10;;;;;;;19.35;7.32;;;2.80;69.60;;;;;;5072151;28;20024;-68
2022/01/19 05:36:36;;;;;;;15.30;6.65;;;2.80;69.70;;;;;;5071363;28;20035;-66
2022/01/19 05:39:05;;;;;;;20.75;6.72;;;2.80;69.80;;;;;;5053475;28;20033;-67
2022/01/19 05:41:34;;;;;;;19.13;7.20;;;2.70;69.70;;;;;;5071647;28;20082;-67
2022/01/19 05:44:00;;;;;;;17.38;7.45;;;2.80;69.90;;;;;;5072041;28;20051;-67
2022/01/19 05:46:26;;;;;;;19.23;6.60;;;2.80;70.00;;;;;;5071430;28;20039;-67
2022/01/19 05:48:51;;;;;;;25.50;7.45;;;2.70;70.00;;;;;;5072120;28;20024;-66
2022/01/19 05:51:18;;;;;;;18.42;8.18;;;2.70;70.20;;;;;;5072029;28;20028;-66
2022/01/19 05:53:43;;;;;;;18.98;7.40;;;2.70;70.50;;;;;;5061967;28;20032;-67
2022/01/19 05:56:09;;;;;;;19.08;7.82;;;2.60;70.50;;;;;;5046941;28;20036;-67
2022/01/19 05:58:35;;;;;;;28.30;7.88;;;2.70;70.50;;;;;;5053267;28;20761;-66
2022/01/19 06:01:01;;;;;;;23.58;7.88;;;2.70;70.60;;;;;;5054333;28;20082;-66
2022/01/19 06:03:27;;;;;;;21.52;7.72;;;2.60;70.70;;;;;;5071281;28;20028;-65
2022/01/19 06:05:53;;;;;;;23.60;8.18;;;2.60;70.80;;;;;;5070534;28;20041;-66
2022/01/19 06:08:39;;;;;;;19.50;8.43;;;2.70;71.00;;;;;;5053325;28;20031;-66
2022/01/19 06:11:04;;;;;;;19.27;7.78;;;2.60;70.90;;;;;;5056337;28;20082;-66
2022/01/19 06:13:30;;;;;;;23.25;8.20;;;2.70;70.80;;;;;;5068422;28;20056;-65
2022/01/19 06:15:56;;;;;;;29.20;7.43;;;2.60;70.60;;;;;;5071207;28;20036;-66
2022/01/19 06:18:22;;;;;;;23.65;7.13;;;2.60;70.70;;;;;;5070636;28;20032;-67
2022/01/19 06:20:48;;;;;;;18.73;7.30;;;2.60;70.80;;;;;;5071500;28;20025;-65
2022/01/19 06:23:14;;;;;;;18.92;7.30;;;2.60;70.80;;;;;;5033774;28;20025;-66
2022/01/19 06:25:39;;;;;;;23.33;9.13;;;2.60;70.80;;;;;;5050706;28;20573;-66
2022/01/19 06:28:05;;;;;;;19.88;8.02;;;2.60;70.90;;;;;;5054903;28;20446;-66
2022/01/19 06:30:31;;;;;;;24.00;8.02;;;2.60;71.00;;;;;;5043420;28;20028;-66
2022/01/19 06:32:57;;;;;;;24.13;8.10;;;2.60;71.00;;;;;;5069797;28;20503;-66
2022/01/19 06:35:23;;;;;;;15.23;7.30;;;2.60;70.90;;;;;;5070548;28;20369;-65
2022/01/19 06:37:49;;;;;;;23.13;7.80;;;2.60;70.90;;;;;;5069057;28;20455;-67
2022/01/19 06:40:17;;;;;;;17.58;7.03;;;2.60;70.90;;;;;;5053278;28;20458;-67
2022/01/19 06:42:44;;;;;;;19.90;9.68;;;2.60;70.90;;;;;;5071024;28;20035;-68
2022/01/19 06:45:11;;;;;;;25.75;8.40;;;2.60;70.80;;;;;;5071051;28;20020;-68
2022/01/19 06:47:39;;;;;;;19.48;8.07;;;2.60;70.90;;;;;;5069357;28;20113;-66
2022/01/19 06:50:07;;;;;;;24.00;8.02;;;2.60;70.90;;;;;;5048171;28;20021;-67
2022/01/19 06:52:33;;;;;;;23.45;8.05;;;2.60;71.10;;;;;;5052195;28;20119;-68
2022/01/19 06:54:59;;;;;;;25.25;8.25;;;2.60;71.10;;;;;;5052874;28;20028;-67
2022/01/19 06:57:25;;;;;;;25.45;7.13;;;2.60;71.20;;;;;;5069694;28;20024;-68
2022/01/19 06:59:51;;;;;;;24.58;8.25;;;2.60;71.20;;;;;;5039405;28;20040;-68
2022/01/19 07:02:18;;;;;;;25.77;7.80;;;2.60;71.20;;;;;;5055759;28;20028;-67
2022/01/19 07:04:49;;;;;;;22.02;7.75;;;2.60;71.10;;;;;;5031685;28;20021;-68
2022/01/19 07:07:17;;;;;;;28.65;8.50;;;2.70;70.90;;;;;;5049174;28;20039;-68
2022/01/19 07:09:43;;;;;;;32.45;9.32;;;2.70;70.90;;;;;;5038250;28;20016;-68
2022/01/19 07:12:09;;;;;;;20.33;6.93;;;2.80;70.80;;;;;;5051488;28;20024;-66
2022/01/19 07:14:35;;;;;;;24.45;7.30;;;2.90;70.70;;;;;;5086725;28;20044;-67
2022/01/19 07:17:00;;;;;;;25.52;7.85;;;2.90;70.50;;;;;;5090451;28;20370;-67
2022/01/19 07:19:26;;;;;;;20.20;7.30;;;3.00;70.20;;;;;;5089927;28;20455;-66
2022/01/19 07:21:52;;;;;;;30.13;8.30;;;3.00;70.30;;;;;;5087764;28;20024;-66
2022/01/19 07:24:18;;;;;;;30.23;8.88;;;3.10;70.30;;;;;;5087972;28;20030;-68
2022/01/19 07:27:02;;;;;;;20.48;7.65;;;3.20;70.20;;;;;;5089074;28;20028;-68
2022/01/19 07:29:29;;;;;;;22.05;8.23;;;3.30;70.00;;;;;;5085558;28;20024;-67
2022/01/19 07:32:01;;;;;;;27.23;9.00;;;3.30;69.60;;;;;;5087349;28;20027;-66
2022/01/19 07:34:29;;;;;;;34.33;9.60;;;3.30;69.90;;;;;;5089028;28;20032;-66
2022/01/19 07:36:55;;;;;;;45.83;10.23;;;3.30;69.40;;;;;;5089889;28;20039;-66
2022/01/19 07:39:22;;;;;;;29.65;9.90;;;3.30;69.90;;;;;;5089387;28;20043;-67
2022/01/19 07:41:48;;;;;;;29.58;10.88;;;3.30;70.10;;;;;;5089659;28;20081;-67
2022/01/19 07:44:14;;;;;;;32.05;11.15;;;3.30;70.40;;;;;;5087106;28;20488;-66
2022/01/19 07:46:41;;;;;;;29.73;11.82;;;3.50;71.70;;;;;;5070660;28;20058;-67
2022/01/19 07:51:51;;;;;;;28.05;12.98;;;7.90;63.90;;;;;;5090407;28;20074;-67
2022/01/19 07:54:16;;;;;;;29.52;13.07;;;9.80;56.50;;;;;;5087510;28;20473;-67
2022/01/19 07:56:42;;;;;;;32.83;16.00;;;10.50;53.10;;;;;;5081978;28;20106;-67
2022/01/19 07:59:08;;;;;;;39.50;22.52;;;10.20;50.40;;;;;;5079609;28;20028;-67
2022/01/19 08:01:34;;;;;;;35.30;13.50;;;9.60;52.10;;;;;;5089765;28;20385;-67
2022/01/19 08:04:00;;;;;;;38.00;16.80;;;9.00;53.40;;;;;;5091187;28;20024;-66
2022/01/19 08:06:26;;;;;;;30.25;13.48;;;8.40;54.30;;;;;;5088704;28;20044;-67
2022/01/19 08:08:52;;;;;;;34.38;11.18;;;8.00;54.80;;;;;;5090419;28;20028;-67
2022/01/19 08:11:18;;;;;;;26.45;11.77;;;7.60;55.50;;;;;;5088831;28;20077;-68
2022/01/19 08:13:44;;;;;;;35.22;11.77;;;7.20;56.10;;;;;;5078345;28;20044;-67
2022/01/19 08:16:10;;;;;;;39.50;18.00;;;7.00;57.10;;;;;;5070601;28;20146;-67
2022/01/19 08:18:35;;;;;;;28.23;11.93;;;6.80;56.90;;;;;;5051504;28;20037;-67
2022/01/19 08:21:01;;;;;;;37.22;14.57;;;6.70;57.50;;;;;;5070069;28;20039;-68
2022/01/19 08:23:27;;;;;;;25.95;10.57;;;6.40;57.70;;;;;;5070183;28;20020;-66
2022/01/19 08:25:53;;;;;;;26.95;10.60;;;6.10;58.40;;;;;;5051113;28;20115;-66
2022/01/19 08:28:20;;;;;;;23.60;10.15;;;5.90;58.90;;;;;;5069765;28;20028;-67
2022/01/19 08:30:47;;;;;;;27.45;10.55;;;5.70;59.40;;;;;;5050092;28;20025;-67
2022/01/19 08:33:12;;;;;;;32.30;13.05;;;5.50;59.80;;;;;;5050431;28;20033;-67
2022/01/19 08:35:38;;;;;;;27.35;10.13;;;5.50;60.30;;;;;;5048376;28;20021;-68
2022/01/19 08:38:04;;;;;;;32.03;10.25;;;5.40;60.70;;;;;;5052648;28;20433;-67
2022/01/19 08:40:33;;;;;;;26.40;9.93;;;5.10;60.90;;;;;;5051891;28;20027;-68
2022/01/19 08:42:59;;;;;;;32.75;10.07;;;5.10;61.60;;;;;;5065545;28;20051;-67
2022/01/19 08:45:25;;;;;;;29.10;10.80;;;5.00;61.60;;;;;;5073698;28;20017;-67
2022/01/19 08:47:52;;;;;;;39.22;11.10;;;4.90;62.30;;;;;;5073789;28;20040;-67
2022/01/19 08:50:18;;;;;;;26.67;9.63;;;5.00;62.60;;;;;;5074225;28;20021;-67
2022/01/19 08:52:47;;;;;;;27.35;9.95;;;5.00;62.30;;;;;;5073595;28;20425;-67
2022/01/19 08:55:14;;;;;;;27.40;11.00;;;5.10;62.50;;;;;;5056240;28;20020;-70
2022/01/19 08:57:40;;;;;;;29.88;12.10;;;5.10;62.00;;;;;;5054213;28;20071;-71
2022/01/19 09:00:09;;;;;;;29.58;10.98;;;5.20;62.00;;;;;;5074392;28;20032;-67
2022/01/19 09:02:35;;;;;;;34.70;11.13;;;5.30;61.40;;;;;;5070795;28;20029;-70
2022/01/19 09:05:02;;;;;;;34.03;10.73;;;5.20;61.60;;;;;;5061344;28;20045;-65
2022/01/19 09:07:28;;;;;;;32.13;10.38;;;5.20;61.80;;;;;;5035378;28;20033;-69
2022/01/19 09:09:54;;;;;;;25.27;10.07;;;5.20;62.00;;;;;;5068321;28;20044;-69
2022/01/19 09:12:20;;;;;;;28.65;9.57;;;5.30;61.80;;;;;;5074875;28;20043;-66
2022/01/19 09:14:45;;;;;;;38.00;11.20;;;5.30;61.60;;;;;;5094161;28;20043;-70
2022/01/19 09:17:11;;;;;;;31.67;11.15;;;5.40;61.50;;;;;;5094010;28;20050;-70
2022/01/19 09:19:39;;;;;;;26.70;9.45;;;5.60;61.20;;;;;;5093569;28;20032;-67
2022/01/19 09:22:06;;;;;;;23.30;9.85;;;5.60;60.40;;;;;;5093824;28;20020;-65
2022/01/19 09:24:34;;;;;;;20.30;9.48;;;5.60;60.40;;;;;;5092597;28;20024;-64
2022/01/19 09:27:00;;;;;;;34.83;9.93;;;5.70;60.30;;;;;;5094515;28;20035;-66
2022/01/19 09:29:26;;;;;;;28.38;11.25;;;5.70;60.00;;;;;;5093672;28;20031;-67
2022/01/19 09:31:54;;;;;;;31.13;9.73;;;5.60;59.50;;;;;;5094586;28;20379;-66
2022/01/19 09:34:21;;;;;;;23.10;10.30;;;5.50;60.00;;;;;;5093067;28;20418;-66
2022/01/19 09:36:48;;;;;;;23.38;8.52;;;5.60;60.20;;;;;;5093658;28;20054;-65
2022/01/19 09:39:18;;;;;;;26.27;8.48;;;5.60;59.90;;;;;;5094076;28;20024;-62
2022/01/19 09:41:45;;;;;;;27.45;8.48;;;5.60;60.10;;;;;;5084677;28;20458;-65
2022/01/19 09:44:11;;;;;;;24.40;7.15;;;5.70;59.80;;;;;;5094065;28;20024;-65
2022/01/19 09:46:37;;;;;;;27.02;8.85;;;5.60;59.70;;;;;;5090024;28;20089;-67
2022/01/19 09:49:05;;;;;;;24.27;7.88;;;5.50;60.20;;;;;;5083709;28;20112;-64
2022/01/19 09:51:31;;;;;;;24.98;9.32;;;5.60;60.50;;;;;;5072373;28;20513;-62
2022/01/19 09:53:57;;;;;;;20.80;8.50;;;5.70;60.40;;;;;;5085044;28;20028;-63
2022/01/19 09:56:23;;;;;;;37.30;9.75;;;5.80;60.20;;;;;;5092516;28;20042;-66
2022/01/19 09:58:49;;;;;;;22.92;8.57;;;5.90;59.80;;;;;;5092858;28;20107;-67
2022/01/19 10:01:23;;;;;;;22.45;8.18;;;6.00;59.50;;;;;;5093620;28;20028;-68
2022/01/19 10:03:48;;;;;;;25.48;8.75;;;6.00;59.00;;;;;;5092451;28;20111;-68
2022/01/19 10:06:17;;;;;;;23.08;8.40;;;5.90;59.20;;;;;;5085930;28;20120;-73
2022/01/19 10:08:48;;;;;;;19.15;7.60;;;5.90;59.30;;;;;;5075244;28;20031;-65
2022/01/19 10:11:27;;;;;;;23.67;7.38;;;6.00;59.20;;;;;;5093745;28;20028;-69
2022/01/19 10:17:03;;;;;;;31.52;7.85;;;6.00;59.30;;;;;;5072236;28;20605;-66
2022/01/19 10:19:39;;;;;;;19.02;7.03;;;6.10;59.40;;;;;;5055214;28;20040;-66
2022/01/19 10:22:14;;;;;;;29.60;7.60;;;6.20;59.40;;;;;;5073034;28;20059;-68
2022/01/19 10:24:39;;;;;;;18.80;7.70;;;6.30;59.30;;;;;;5072217;28;20021;-66
2022/01/19 10:27:33;;;;;;;23.77;7.50;;;6.30;59.00;;;;;;5073000;28;20020;-67
2022/01/19 10:30:04;;;;;;;19.60;7.47;;;6.20;59.30;;;;;;5054977;28;20055;-69
2022/01/19 10:32:50;;;;;;;19.10;7.68;;;6.20;60.00;;;;;;5072464;28;20029;-69
2022/01/19 10:35:15;;;;;;;23.02;7.57;;;6.10;59.80;;;;;;5055314;28;20131;-66
2022/01/19 10:37:43;;;;;;;25.27;7.32;;;6.10;59.90;;;;;;5067802;28;20107;-72
2022/01/19 10:40:20;;;;;;;14.23;6.35;;;6.20;59.70;;;;;;5058692;28;20028;-64
2022/01/19 10:42:47;;;;;;;18.15;7.28;;;6.20;60.00;;;;;;5068063;28;20036;-69
2022/01/19 10:45:15;;;;;;;18.90;6.57;;;6.30;59.60;;;;;;5072606;28;20433;-65
2022/01/19 10:47:53;;;;;;;19.88;8.13;;;6.30;59.20;;;;;;5071790;28;20039;-71
2022/01/19 10:50:31;;;;;;;17.92;7.65;;;6.30;59.60;;;;;;5072038;28;20032;-68
2022/01/19 10:52:59;;;;;;;20.73;7.80;;;6.50;59.70;;;;;;5071789;28;20120;-69
2022/01/19 10:55:40;;;;;;;21.80;8.07;;;6.50;59.00;;;;;;5055957;28;20100;-68
2022/01/19 10:58:15;;;;;;;22.27;8.20;;;6.60;58.40;;;;;;5071016;28;20107;-68
2022/01/19 11:00:52;;;;;;;24.65;9.68;;;6.60;58.60;;;;;;5064068;28;20027;-69
2022/01/19 11:03:20;;;;;;;21.88;9.27;;;6.90;58.40;;;;;;5045049;28;20028;-65
2022/01/19 11:05:51;;;;;;;21.48;8.35;;;7.20;57.20;;;;;;5071398;28;20064;-67
2022/01/19 11:08:19;;;;;;;20.45;8.20;;;7.20;57.00;;;;;;5072022;28;20075;-64
2022/01/19 11:10:50;;;;;;;20.23;8.05;;;7.00;57.50;;;;;;5053227;28;20033;-64
2022/01/19 11:13:27;;;;;;;22.23;9.25;;;7.20;58.00;;;;;;5044892;28;20139;-65
2022/01/19 11:15:54;;;;;;;18.35;7.75;;;7.30;56.90;;;;;;5088880;28;20310;-65
2022/01/19 11:18:21;;;;;;;21.45;7.43;;;7.30;56.80;;;;;;5091845;28;20028;-65
2022/01/19 11:20:49;;;;;;;19.92;8.77;;;7.20;57.20;;;;;;5091101;28;20038;-64
2022/01/19 11:23:33;;;;;;;22.20;8.07;;;7.10;57.20;;;;;;5091795;28;20020;-64
2022/01/19 11:26:11;;;;;;;16.40;7.78;;;7.20;57.30;;;;;;5091371;28;20055;-65
2022/01/19 11:28:43;;;;;;;26.48;8.25;;;7.10;57.10;;;;;;5089935;28;20031;-65
2022/01/19 11:31:16;;;;;;;22.65;8.05;;;7.00;56.90;;;;;;5085503;28;20040;-64
2022/01/19 11:33:43;;;;;;;19.80;8.73;;;6.90;57.50;;;;;;5079352;28;20048;-65
2022/01/19 11:36:22;;;;;;;22.45;7.95;;;6.90;57.80;;;;;;5086069;28;20024;-65
2022/01/19 11:39:03;;;;;;;19.25;7.55;;;7.00;57.30;;;;;;5070812;28;20060;-65
2022/01/19 11:41:44;;;;;;;17.45;7.45;;;7.00;57.30;;;;;;5071310;28;20110;-65
2022/01/19 11:44:33;;;;;;;20.73;8.25;;;6.90;57.70;;;;;;5074100;28;20465;-64
2022/01/19 11:47:24;;;;;;;25.70;8.75;;;6.90;58.10;;;;;;5058674;28;20032;-65
2022/01/19 11:50:10;;;;;;;19.63;8.88;;;7.00;58.90;;;;;;5087388;28;20032;-64
2022/01/19 11:52:39;;;;;;;21.92;9.00;;;7.00;57.80;;;;;;5091318;28;20170;-67
2022/01/19 11:55:21;;;;;;;28.75;9.50;;;7.00;58.10;;;;;;5090095;28;20077;-65
2022/01/19 11:57:49;;;;;;;20.45;8.38;;;7.00;57.80;;;;;;5089635;28;20028;-66
2022/01/19 12:00:24;;;;;;;22.38;8.95;;;7.00;58.10;;;;;;5091439;28;20122;-66
2022/01/19 12:02:52;;;;;;;22.75;8.63;;;7.60;57.70;;;;;;5090713;28;20024;-65
2022/01/19 12:05:24;;;;;;;22.52;8.98;;;8.80;56.00;;;;;;5091820;28;20024;-65
2022/01/19 12:07:57;;;;;;;20.67;9.27;;;8.60;52.80;;;;;;5091048;28;20072;-64
2022/01/19 12:10:44;;;;;;;26.42;9.13;;;8.10;53.90;;;;;;5090288;28;20115;-65
2022/01/19 12:16:20;;;;;;;19.70;8.20;;;8.00;55.30;;;;;;5013028;28;20619;-66
2022/01/19 12:18:56;;;;;;;25.52;9.35;;;7.90;55.30;;;;;;5083126;28;20052;-65
2022/01/19 12:21:36;;;;;;;18.67;7.80;;;7.70;55.50;;;;;;5095620;28;20059;-65
2022/01/19 12:24:26;;;;;;;27.50;9.93;;;7.60;55.90;;;;;;5093874;28;20028;-65
2022/01/19 12:27:12;;;;;;;17.77;9.23;;;7.50;56.50;;;;;;5073263;28;20028;-65
2022/01/19 12:29:42;;;;;;;22.65;9.70;;;7.50;56.70;;;;;;5086186;28;20457;-63
2022/01/19 12:32:29;;;;;;;17.20;9.63;;;7.40;56.80;;;;;;5086211;28;20027;-64
2022/01/19 12:35:07;;;;;;;22.00;9.93;;;7.40;56.90;;;;;;5085490;28;20025;-65
2022/01/19 12:37:32;;;;;;;20.17;9.88;;;7.40;57.20;;;;;;5073920;28;20433;-66
2022/01/19 12:40:01;;;;;;;24.48;10.13;;;7.40;57.30;;;;;;5074472;28;20024;-65
2022/01/19 12:42:44;;;;;;;24.27;10.13;;;7.40;57.20;;;;;;5073799;28;20055;-65
2022/01/19 12:45:26;;;;;;;23.75;10.68;;;7.40;57.30;;;;;;5057231;28;20032;-65
2022/01/19 12:48:03;;;;;;;23.92;10.45;;;7.40;57.40;;;;;;5074310;28;20032;-66
2022/01/19 12:50:29;;;;;;;20.50;9.52;;;7.50;57.40;;;;;;5087657;28;20024;-65
2022/01/19 12:53:04;;;;;;;26.10;9.88;;;7.30;57.50;;;;;;5093095;28;20031;-65
2022/01/19 12:55:34;;;;;;;19.33;9.50;;;7.30;57.80;;;;;;5095262;28;20047;-66
2022/01/19 12:58:07;;;;;;;32.17;10.93;;;7.20;57.80;;;;;;5094151;28;20032;-65
2022/01/19 13:00:33;;;;;;;24.77;10.38;;;7.30;58.10;;;;;;5094657;28;20056;-65
2022/01/19 13:02:59;;;;;;;24.08;11.77;;;7.30;58.00;;;;;;5094392;28;20390;-65
2022/01/19 13:05:29;;;;;;;27.48;10.48;;;7.30;58.10;;;;;;5091719;28;20038;-65
2022/01/19 13:08:00;;;;;;;23.13;10.07;;;7.20;58.20;;;;;;5093820;28;20122;-65
2022/01/19 13:15:53;;;;;;;24.02;9.05;;;7.30;58.00;;;;;;5115007;28;20035;-65
2022/01/19 13:18:28;;;;;;;27.60;9.52;;;7.20;58.30;;;;;;5114491;28;20043;-65
2022/01/19 13:20:55;;;;;;;21.95;9.32;;;7.20;58.50;;;;;;5112155;28;20486;-64
2022/01/19 13:23:23;;;;;;;24.73;10.48;;;7.20;58.60;;;;;;5071320;28;20052;-67
2022/01/19 13:26:14;;;;;;;21.23;10.50;;;7.20;58.60;;;;;;5109525;28;20051;-67
2022/01/19 13:28:40;;;;;;;25.52;10.77;;;7.30;58.90;;;;;;5109714;28;20040;-66
2022/01/19 13:31:09;;;;;;;24.63;10.68;;;7.30;58.90;;;;;;5113692;28;20077;-66
2022/01/19 13:33:35;;;;;;;22.88;9.43;;;7.40;58.80;;;;;;5096315;28;20027;-67
2022/01/19 13:36:01;;;;;;;26.65;11.27;;;7.40;59.00;;;;;;5095440;28;20049;-65
2022/01/19 13:38:27;;;;;;;24.35;9.38;;;7.40;59.70;;;;;;5114493;28;20115;-66
2022/01/19 13:41:08;;;;;;;26.27;10.57;;;7.40;59.10;;;;;;5079949;28;20477;-67
2022/01/19 13:43:37;;;;;;;26.60;11.02;;;7.30;58.90;;;;;;5073568;28;20039;-68
2022/01/19 13:46:14;;;;;;;20.13;10.38;;;7.40;58.90;;;;;;5075348;28;20120;-68
2022/01/19 13:48:43;;;;;;;23.80;11.07;;;7.40;59.00;;;;;;5055897;28;20506;-68
2022/01/19 13:51:14;;;;;;;25.38;10.55;;;7.40;59.00;;;;;;5055627;28;20032;-68
2022/01/19 13:53:53;;;;;;;23.27;9.93;;;7.30;59.00;;;;;;5073525;28;20027;-67
2022/01/19 13:56:35;;;;;;;29.98;11.25;;;7.30;59.10;;;;;;5073147;28;20032;-66
2022/01/19 13:59:17;;;;;;;22.40;10.20;;;7.30;59.40;;;;;;5107593;28;20028;-67
2022/01/19 14:01:54;;;;;;;25.65;10.50;;;7.30;59.50;;;;;;5095740;28;20059;-67
2022/01/19 14:04:20;;;;;;;24.05;10.68;;;7.30;59.60;;;;;;5113999;28;20023;-67
2022/01/19 14:06:49;;;;;;;27.90;12.48;;;7.30;59.60;;;;;;5113749;28;20602;-72
2022/01/19 14:09:16;;;;;;;20.60;10.20;;;7.30;59.60;;;;;;5114315;28;20016;-68
2022/01/19 14:11:58;;;;;;;25.75;10.45;;;7.30;59.50;;;;;;5095276;28;20032;-66
2022/01/19 14:14:26;;;;;;;26.27;9.57;;;7.30;59.60;;;;;;5112052;28;20093;-66
2022/01/19 14:16:55;;;;;;;23.90;10.02;;;7.30;59.60;;;;;;5094426;28;20036;-67
2022/01/19 14:19:23;;;;;;;21.55;10.20;;;7.20;59.60;;;;;;5078786;28;20027;-68
2022/01/19 14:22:08;;;;;;;24.45;10.15;;;7.30;59.70;;;;;;5112898;28;20373;-67
2022/01/19 14:24:56;;;;;;;24.00;9.38;;;7.30;59.60;;;;;;5113685;28;20493;-67
2022/01/19 14:27:45;;;;;;;29.85;11.60;;;7.30;59.60;;;;;;5114106;28;20126;-67